createdAt,value
2022-09-28T00:00:47.829Z,91.82
2022-09-28T00:01:47.910Z,91.20
2022-09-28T00:02:47.863Z,91.66
2022-09-28T00:03:47.771Z,91.66
2022-09-28T00:04:47.770Z,91.35
2022-09-28T00:05:47.756Z,91.45
2022-09-28T00:06:47.767Z,91.14
2022-09-28T00:07:47.749Z,90.94
2022-09-28T00:08:47.752Z,91.76
2022-09-28T00:09:47.722Z,92.07
2022-09-28T00:10:47.729Z,91.86
2022-09-28T00:11:47.712Z,90.94
2022-09-28T00:12:47.738Z,91.31
2022-09-28T00:13:47.697Z,90.89
2022-09-28T00:14:47.693Z,90.80
2022-09-28T00:15:47.715Z,91.10
2022-09-28T00:16:47.738Z,90.59
2022-09-28T00:17:47.694Z,91.31
2022-09-28T00:18:47.671Z,91.55
2022-09-28T00:19:47.678Z,91.97
2022-09-28T00:20:47.660Z,91.51
2022-09-28T00:21:47.669Z,91.00
2022-09-28T00:22:47.644Z,91.41
2022-09-28T00:23:47.635Z,91.45
2022-09-28T00:24:47.630Z,91.31
2022-09-28T00:25:47.611Z,91.45
2022-09-28T00:26:47.645Z,91.76
2022-09-28T00:27:47.609Z,91.86
2022-09-28T00:28:47.607Z,91.76
2022-09-28T00:29:47.594Z,91.55
2022-09-28T00:30:47.610Z,91.72
2022-09-28T00:31:47.654Z,91.86
2022-09-28T00:32:47.575Z,91.76
2022-09-28T00:33:47.565Z,91.72
2022-09-28T00:34:47.564Z,91.72
2022-09-28T00:35:47.556Z,91.20
2022-09-28T00:36:47.568Z,91.45
2022-09-28T00:37:47.535Z,90.89
2022-09-28T00:38:47.536Z,91.41
2022-09-28T00:39:47.536Z,91.10
2022-09-28T00:40:47.585Z,91.41
2022-09-28T00:41:47.516Z,91.55
2022-09-28T00:42:47.526Z,91.41
2022-09-28T00:43:47.492Z,91.20
2022-09-28T00:44:47.508Z,91.20
2022-09-28T00:45:47.517Z,90.89
2022-09-28T00:46:47.480Z,91.41
2022-09-28T00:47:47.468Z,90.80
2022-09-28T00:48:47.484Z,91.41
2022-09-28T00:49:47.457Z,90.89
2022-09-28T00:50:47.487Z,91.41
2022-09-28T00:51:47.456Z,91.10
2022-09-28T00:52:47.441Z,91.20
2022-09-28T00:53:47.436Z,91.31
2022-09-28T00:54:47.423Z,91.00
2022-09-28T00:55:47.419Z,91.41
2022-09-28T00:56:47.428Z,91.86
2022-09-28T00:57:47.408Z,91.86
2022-09-28T00:58:47.400Z,91.97
2022-09-28T00:59:47.395Z,91.97
2022-09-28T01:00:47.456Z,92.23
2022-09-28T01:01:47.419Z,91.97
2022-09-28T01:02:47.393Z,92.13
2022-09-28T01:03:47.374Z,91.20
2022-09-28T01:04:47.361Z,91.82
2022-09-28T01:05:47.366Z,91.86
2022-09-28T01:06:47.355Z,91.61
2022-09-28T01:07:47.375Z,91.41
2022-09-28T01:08:47.352Z,92.33
2022-09-28T01:09:47.336Z,92.03
2022-09-28T01:10:47.329Z,91.93
2022-09-28T01:11:47.347Z,91.97
2022-09-28T01:12:47.312Z,91.82
2022-09-28T01:13:47.320Z,91.72
2022-09-28T01:14:47.302Z,91.72
2022-09-28T01:15:47.289Z,91.82
2022-09-28T01:16:47.341Z,91.93
2022-09-28T01:17:47.293Z,91.61
2022-09-28T01:18:47.281Z,91.93
2022-09-28T01:19:47.266Z,92.13
2022-09-28T01:20:47.286Z,91.82
2022-09-28T01:21:47.264Z,91.82
2022-09-28T01:22:47.257Z,91.51
2022-09-28T01:23:47.244Z,91.82
2022-09-28T01:24:47.241Z,91.82
2022-09-28T01:25:47.250Z,91.93
2022-09-28T01:26:47.231Z,92.13
2022-09-28T01:27:47.209Z,91.93
2022-09-28T01:28:47.213Z,91.72
2022-09-28T01:29:47.210Z,91.51
2022-09-28T01:30:47.192Z,91.82
2022-09-28T01:31:47.236Z,91.41
2022-09-28T01:32:47.177Z,92.03
2022-09-28T01:33:47.174Z,92.23
2022-09-28T01:34:47.207Z,92.13
2022-09-28T01:35:47.153Z,92.03
2022-09-28T01:36:47.156Z,91.82
2022-09-28T01:37:47.145Z,92.23
2022-09-28T01:38:47.135Z,91.72
2022-09-28T01:39:47.127Z,91.72
2022-09-28T01:40:47.192Z,91.72
2022-09-28T01:41:47.113Z,91.93
2022-09-28T01:42:47.109Z,91.82
2022-09-28T01:43:47.101Z,91.72
2022-09-28T01:44:47.097Z,91.72
2022-09-28T01:45:47.137Z,92.03
2022-09-28T01:46:47.095Z,91.61
2022-09-28T01:47:47.075Z,91.93
2022-09-28T01:48:47.067Z,92.03
2022-09-28T01:49:47.057Z,92.03
2022-09-28T01:50:47.065Z,92.54
2022-09-28T01:51:47.037Z,92.44
2022-09-28T01:52:47.067Z,92.54
2022-09-28T01:53:47.032Z,92.23
2022-09-28T01:54:47.018Z,92.44
2022-09-28T01:55:47.017Z,92.44
2022-09-28T01:56:47.007Z,92.74
2022-09-28T01:57:46.998Z,92.85
2022-09-28T01:58:47.024Z,92.64
2022-09-28T01:59:46.985Z,92.85
2022-09-28T02:00:47.041Z,92.85
2022-09-28T02:01:47.067Z,92.64
2022-09-28T02:02:46.970Z,92.60
2022-09-28T02:03:46.965Z,92.33
2022-09-28T02:04:46.980Z,92.44
2022-09-28T02:05:46.961Z,92.64
2022-09-28T02:06:46.938Z,92.95
2022-09-28T02:07:46.930Z,92.64
2022-09-28T02:08:46.946Z,92.64
2022-09-28T02:09:46.939Z,92.54
2022-09-28T02:10:46.925Z,92.85
2022-09-28T02:11:46.911Z,92.64
2022-09-28T02:12:46.896Z,92.64
2022-09-28T02:13:46.891Z,92.54
2022-09-28T02:14:46.908Z,92.64
2022-09-28T02:15:46.890Z,92.85
2022-09-28T02:16:46.916Z,92.85
2022-09-28T02:17:46.868Z,92.95
2022-09-28T02:18:46.861Z,92.95
2022-09-28T02:19:46.849Z,93.16
2022-09-28T02:20:46.854Z,93.26
2022-09-28T02:21:46.854Z,93.57
2022-09-28T02:22:46.835Z,93.26
2022-09-28T02:23:46.813Z,93.26
2022-09-28T02:24:46.836Z,92.74
2022-09-28T02:25:46.801Z,93.40
2022-09-28T02:26:46.804Z,93.61
2022-09-28T02:27:46.784Z,93.57
2022-09-28T02:28:46.791Z,93.82
2022-09-28T02:29:46.781Z,93.57
2022-09-28T02:30:46.797Z,93.57
2022-09-28T02:31:46.810Z,93.71
2022-09-28T02:32:46.764Z,93.71
2022-09-28T02:33:46.743Z,94.02
2022-09-28T02:34:46.743Z,94.12
2022-09-28T02:35:46.732Z,93.92
2022-09-28T02:36:46.751Z,94.18
2022-09-28T02:37:46.725Z,93.67
2022-09-28T02:38:46.723Z,93.57
2022-09-28T02:39:46.707Z,93.57
2022-09-28T02:40:46.765Z,93.77
2022-09-28T02:41:46.688Z,93.98
2022-09-28T02:42:46.708Z,94.12
2022-09-28T02:43:46.680Z,93.77
2022-09-28T02:44:46.671Z,93.82
2022-09-28T02:45:46.690Z,93.57
2022-09-28T02:46:46.652Z,93.67
2022-09-28T02:47:46.670Z,93.57
2022-09-28T02:48:55.710Z,92.85
2022-09-28T02:49:47.635Z,93.36
2022-09-28T02:50:46.654Z,93.36
2022-09-28T02:51:46.622Z,93.77
2022-09-28T02:52:46.622Z,94.08
2022-09-28T02:53:46.616Z,93.57
2022-09-28T02:54:46.631Z,92.85
2022-09-28T02:55:46.601Z,93.05
2022-09-28T02:56:46.590Z,92.85
2022-09-28T02:57:46.578Z,93.67
2022-09-28T02:58:46.584Z,94.18
2022-09-28T02:59:46.579Z,94.70
2022-09-28T03:00:46.635Z,94.49
2022-09-28T03:01:46.601Z,93.87
2022-09-28T03:02:46.584Z,93.93
2022-09-28T03:03:46.552Z,93.98
2022-09-28T03:04:46.543Z,94.59
2022-09-28T03:05:46.531Z,94.59
2022-09-28T03:06:46.520Z,94.90
2022-09-28T03:07:46.525Z,95.25
2022-09-28T03:08:46.540Z,95.10
2022-09-28T03:09:46.501Z,94.59
2022-09-28T03:10:46.501Z,94.70
2022-09-28T03:11:46.491Z,94.59
2022-09-28T03:12:46.483Z,94.90
2022-09-28T03:13:46.471Z,94.29
2022-09-28T03:14:46.483Z,93.98
2022-09-28T03:15:48.781Z,93.42
2022-09-28T03:16:46.554Z,93.46
2022-09-28T03:17:46.447Z,93.57
2022-09-28T03:18:46.450Z,93.42
2022-09-28T03:19:46.435Z,92.91
2022-09-28T03:20:46.436Z,92.70
2022-09-28T03:21:46.428Z,92.40
2022-09-28T03:23:00.288Z,92.40
2022-09-28T03:23:47.421Z,92.50
2022-09-28T03:24:46.411Z,92.19
2022-09-28T03:25:46.401Z,92.50
2022-09-28T03:26:46.423Z,92.91
2022-09-28T03:27:46.381Z,92.91
2022-09-28T03:28:46.410Z,92.91
2022-09-28T03:29:46.364Z,92.70
2022-09-28T03:30:46.365Z,92.40
2022-09-28T03:31:46.421Z,91.67
2022-09-28T03:32:46.360Z,91.78
2022-09-28T03:33:46.370Z,91.78
2022-09-28T03:34:46.341Z,91.78
2022-09-28T03:35:46.327Z,92.19
2022-09-28T03:36:46.322Z,91.67
2022-09-28T03:37:46.304Z,91.99
2022-09-28T03:38:46.330Z,92.66
2022-09-28T03:39:46.300Z,92.29
2022-09-28T03:40:46.334Z,92.40
2022-09-28T03:41:46.297Z,92.70
2022-09-28T03:42:46.285Z,93.01
2022-09-28T03:43:46.301Z,92.91
2022-09-28T03:44:46.263Z,93.63
2022-09-28T03:45:46.312Z,93.63
2022-09-28T03:46:46.255Z,93.73
2022-09-28T03:47:46.240Z,92.91
2022-09-28T03:48:46.236Z,92.80
2022-09-28T03:49:46.258Z,92.91
2022-09-28T03:50:46.227Z,93.01
2022-09-28T03:51:46.228Z,93.12
2022-09-28T03:52:46.209Z,92.80
2022-09-28T03:53:46.226Z,92.80
2022-09-28T03:54:49.271Z,93.01
2022-09-28T03:55:46.187Z,92.80
2022-09-28T03:56:46.191Z,92.91
2022-09-28T03:57:46.186Z,92.80
2022-09-28T03:58:46.182Z,92.91
2022-09-28T03:59:46.187Z,93.01
2022-09-28T04:00:46.201Z,93.01
2022-09-28T04:01:46.189Z,93.12
2022-09-28T04:02:46.160Z,93.46
2022-09-28T04:03:46.142Z,93.57
2022-09-28T04:04:46.158Z,93.67
2022-09-28T04:05:46.125Z,93.36
2022-09-28T04:06:46.125Z,93.57
2022-09-28T04:07:46.119Z,93.01
2022-09-28T04:08:46.115Z,93.21
2022-09-28T04:09:46.099Z,93.21
2022-09-28T04:10:46.125Z,93.32
2022-09-28T04:12:02.875Z,93.32
2022-09-28T04:12:47.091Z,93.21
2022-09-28T04:13:46.077Z,93.63
2022-09-28T04:14:46.080Z,93.42
2022-09-28T04:15:46.065Z,93.67
2022-09-28T04:16:46.132Z,93.26
2022-09-28T04:17:46.049Z,93.36
2022-09-28T04:18:46.043Z,93.46
2022-09-28T04:19:46.035Z,93.16
2022-09-28T04:20:46.040Z,93.42
2022-09-28T04:21:46.048Z,93.42
2022-09-28T04:22:46.017Z,93.57
2022-09-28T04:23:46.010Z,94.59
2022-09-28T04:24:46.033Z,95.21
2022-09-28T04:25:46.005Z,95.21
2022-09-28T04:26:46.004Z,95.72
2022-09-28T04:27:45.994Z,95.62
2022-09-28T04:28:45.980Z,95.83
2022-09-28T04:29:45.971Z,96.03
2022-09-28T04:30:45.993Z,95.72
2022-09-28T04:31:46.039Z,95.10
2022-09-28T04:32:45.962Z,94.49
2022-09-28T04:33:45.969Z,94.64
2022-09-28T04:34:45.946Z,94.80
2022-09-28T04:35:45.950Z,94.18
2022-09-28T04:36:45.952Z,94.39
2022-09-28T04:37:45.922Z,94.29
2022-09-28T04:38:53.183Z,94.29
2022-09-28T04:39:48.597Z,93.77
2022-09-28T04:40:45.972Z,93.73
2022-09-28T04:41:45.901Z,94.18
2022-09-28T04:42:45.903Z,94.29
2022-09-28T04:43:45.885Z,94.18
2022-09-28T04:44:45.881Z,93.77
2022-09-28T04:45:45.913Z,94.08
2022-09-28T04:46:45.892Z,94.29
2022-09-28T04:47:45.883Z,94.80
2022-09-28T04:48:45.864Z,95.25
2022-09-28T04:49:45.851Z,95.46
2022-09-28T04:50:45.843Z,95.36
2022-09-28T04:51:45.839Z,95.67
2022-09-28T04:52:45.820Z,95.87
2022-09-28T04:53:45.855Z,95.36
2022-09-28T04:54:45.817Z,95.15
2022-09-28T04:55:45.811Z,95.36
2022-09-28T04:56:45.801Z,95.31
2022-09-28T04:57:45.787Z,94.49
2022-09-28T04:58:50.287Z,94.39
2022-09-28T04:59:46.798Z,94.39
2022-09-28T05:00:45.819Z,94.08
2022-09-28T05:01:45.758Z,94.59
2022-09-28T05:02:45.764Z,94.70
2022-09-28T05:03:45.768Z,94.80
2022-09-28T05:04:45.781Z,94.59
2022-09-28T05:05:45.739Z,94.49
2022-09-28T05:06:45.755Z,94.90
2022-09-28T05:07:45.729Z,94.70
2022-09-28T05:08:45.783Z,94.80
2022-09-28T05:09:45.713Z,94.80
2022-09-28T05:10:45.705Z,94.70
2022-09-28T05:11:45.690Z,94.59
2022-09-28T05:12:45.698Z,94.59
2022-09-28T05:13:45.718Z,94.49
2022-09-28T05:14:45.700Z,94.59
2022-09-28T05:15:45.676Z,94.80
2022-09-28T05:16:45.734Z,95.01
2022-09-28T05:17:45.670Z,94.90
2022-09-28T05:18:45.684Z,95.21
2022-09-28T05:19:45.646Z,95.31
2022-09-28T05:20:45.652Z,95.10
2022-09-28T05:21:45.676Z,94.70
2022-09-28T05:22:45.628Z,94.80
2022-09-28T05:23:45.622Z,94.80
2022-09-28T05:24:45.634Z,95.01
2022-09-28T05:25:45.624Z,94.34
2022-09-28T05:26:45.597Z,94.90
2022-09-28T05:27:45.590Z,94.90
2022-09-28T05:28:45.614Z,94.70
2022-09-28T05:29:45.575Z,94.24
2022-09-28T05:30:45.577Z,94.29
2022-09-28T05:31:45.601Z,93.73
2022-09-28T05:32:45.568Z,93.63
2022-09-28T05:33:45.552Z,93.83
2022-09-28T05:34:45.571Z,95.37
2022-09-28T05:35:48.738Z,99.99
2022-09-28T05:36:46.565Z,98.36
2022-09-28T05:37:45.539Z,95.70
2022-09-28T05:38:45.541Z,92.12
2022-09-28T05:39:45.524Z,92.49
2022-09-28T05:40:45.552Z,88.65
2022-09-28T05:41:45.510Z,89.37
2022-09-28T05:42:45.524Z,90.36
2022-09-28T05:43:45.500Z,86.67
2022-09-28T05:44:45.518Z,86.88
2022-09-28T05:45:45.535Z,84.69
2022-09-28T05:46:45.491Z,85.30
2022-09-28T05:47:45.474Z,85.91
2022-09-28T05:48:45.465Z,86.63
2022-09-28T05:49:45.480Z,85.10
2022-09-28T05:50:45.458Z,84.65
2022-09-28T05:51:45.442Z,83.01
2022-09-28T05:52:45.442Z,83.36
2022-09-28T05:53:45.452Z,83.91
2022-09-28T05:54:45.437Z,84.77
2022-09-28T05:55:45.441Z,85.93
2022-09-28T05:56:45.411Z,86.69
2022-09-28T05:57:45.417Z,86.18
2022-09-28T05:58:45.414Z,86.79
2022-09-28T05:59:45.401Z,87.20
2022-09-28T06:00:45.490Z,86.79
2022-09-28T06:01:45.387Z,87.96
2022-09-28T06:02:45.442Z,88.57
2022-09-28T06:03:45.366Z,88.82
2022-09-28T06:04:45.364Z,89.78
2022-09-28T06:05:45.359Z,89.89
2022-09-28T06:06:45.372Z,89.99
2022-09-28T06:07:45.340Z,89.99
2022-09-28T06:08:45.343Z,90.75
2022-09-28T06:09:45.355Z,90.75
2022-09-28T06:10:45.325Z,90.75
2022-09-28T06:11:45.365Z,90.65
2022-09-28T06:12:45.312Z,90.44
2022-09-28T06:13:45.303Z,90.34
2022-09-28T06:14:45.292Z,90.34
2022-09-28T06:15:45.310Z,90.55
2022-09-28T06:16:45.340Z,90.44
2022-09-28T06:17:45.280Z,90.85
2022-09-28T06:18:45.284Z,91.16
2022-09-28T06:19:45.263Z,91.06
2022-09-28T06:20:45.297Z,90.85
2022-09-28T06:21:45.250Z,91.20
2022-09-28T06:22:45.242Z,91.06
2022-09-28T06:23:48.983Z,91.72
2022-09-28T06:24:45.258Z,92.13
2022-09-28T06:25:45.246Z,91.78
2022-09-28T06:26:45.219Z,91.99
2022-09-28T06:27:45.210Z,91.78
2022-09-28T06:28:45.202Z,90.75
2022-09-28T06:29:45.205Z,91.47
2022-09-28T06:30:45.294Z,91.51
2022-09-28T06:31:45.180Z,91.67
2022-09-28T06:32:45.181Z,91.88
2022-09-28T06:33:45.186Z,91.67
2022-09-28T06:34:45.158Z,91.22
2022-09-28T06:35:45.157Z,90.71
2022-09-28T06:36:45.143Z,90.71
2022-09-28T06:37:45.137Z,90.91
2022-09-28T06:38:45.134Z,90.71
2022-09-28T06:39:45.146Z,90.40
2022-09-28T06:40:45.158Z,89.69
2022-09-28T06:41:45.124Z,90.16
2022-09-28T06:42:45.102Z,90.50
2022-09-28T06:43:45.131Z,90.30
2022-09-28T06:44:45.089Z,90.40
2022-09-28T06:45:45.115Z,91.12
2022-09-28T06:46:45.099Z,90.95
2022-09-28T06:47:45.068Z,90.71
2022-09-28T06:48:45.093Z,90.81
2022-09-28T06:49:45.052Z,91.02
2022-09-28T06:50:45.056Z,90.81
2022-09-28T06:51:45.070Z,91.22
2022-09-28T06:52:45.065Z,91.33
2022-09-28T06:53:45.032Z,90.87
2022-09-28T06:54:45.028Z,90.87
2022-09-28T06:55:45.016Z,90.67
2022-09-28T06:56:45.039Z,90.97
2022-09-28T06:57:45.007Z,90.16
2022-09-28T06:58:45.011Z,89.54
2022-09-28T06:59:45.001Z,89.39
2022-09-28T07:00:45.072Z,88.98
2022-09-28T07:01:45.050Z,89.04
2022-09-28T07:02:45.013Z,88.64
2022-09-28T07:03:44.968Z,88.18
2022-09-28T07:04:44.983Z,87.88
2022-09-28T07:05:44.962Z,87.32
2022-09-28T07:06:44.954Z,87.02
2022-09-28T07:07:44.936Z,84.93
2022-09-28T07:08:47.246Z,85.69
2022-09-28T07:09:49.515Z,87.02
2022-09-28T07:10:45.919Z,86.10
2022-09-28T07:11:44.909Z,86.20
2022-09-28T07:12:44.908Z,86.61
2022-09-28T07:13:52.147Z,85.17
2022-09-28T07:14:48.035Z,85.99
2022-09-28T07:15:44.889Z,86.75
2022-09-28T07:17:10.151Z,86.65
2022-09-28T07:17:58.244Z,86.96
2022-09-28T07:18:45.867Z,86.75
2022-09-28T07:19:44.851Z,86.75
2022-09-28T07:20:53.612Z,87.41
2022-09-28T07:21:47.058Z,86.90
2022-09-28T07:22:45.839Z,87.26
2022-09-28T07:23:52.925Z,87.30
2022-09-28T07:24:45.822Z,88.12
2022-09-28T07:25:44.805Z,88.47
2022-09-28T07:26:44.803Z,88.37
2022-09-28T07:27:44.803Z,88.57
2022-09-28T07:28:44.818Z,88.06
2022-09-28T07:29:44.790Z,88.02
2022-09-28T07:30:44.988Z,88.47
2022-09-28T07:31:44.767Z,88.17
2022-09-28T07:32:44.801Z,88.47
2022-09-28T07:33:44.767Z,88.78
2022-09-28T07:34:44.756Z,89.09
2022-09-28T07:35:44.743Z,88.57
2022-09-28T07:36:44.741Z,88.88
2022-09-28T07:37:44.726Z,88.98
2022-09-28T07:38:44.727Z,88.37
2022-09-28T07:39:44.706Z,88.06
2022-09-28T07:40:48.306Z,88.17
2022-09-28T07:41:44.713Z,88.12
2022-09-28T07:42:44.693Z,87.92
2022-09-28T07:43:44.682Z,88.33
2022-09-28T07:44:44.684Z,86.79
2022-09-28T07:45:44.711Z,86.96
2022-09-28T07:46:44.682Z,86.61
2022-09-28T07:47:44.661Z,86.51
2022-09-28T07:48:44.658Z,85.28
2022-09-28T07:49:44.644Z,85.48
2022-09-28T07:50:44.630Z,85.34
2022-09-28T07:51:44.654Z,84.72
2022-09-28T07:52:44.616Z,85.34
2022-09-28T07:53:44.633Z,86.36
2022-09-28T07:54:44.611Z,85.24
2022-09-28T07:55:44.600Z,84.77
2022-09-28T07:56:44.623Z,85.03
2022-09-28T07:57:44.574Z,84.72
2022-09-28T07:58:44.575Z,84.48
2022-09-28T07:59:44.565Z,84.17
2022-09-28T08:00:44.566Z,84.48
2022-09-28T08:01:44.616Z,83.76
2022-09-28T08:02:44.629Z,83.48
2022-09-28T08:03:44.542Z,82.46
2022-09-28T08:04:44.538Z,80.93
2022-09-28T08:05:44.529Z,80.69
2022-09-28T08:06:44.527Z,80.34
2022-09-28T08:07:44.539Z,78.36
2022-09-28T08:08:44.513Z,74.65
2022-09-28T08:09:44.496Z,71.91
2022-09-28T08:10:46.807Z,66.24
2022-09-28T08:11:44.486Z,61.68
2022-09-28T08:12:44.476Z,59.14
2022-09-28T08:13:44.491Z,55.61
2022-09-28T08:14:44.496Z,53.87
2022-09-28T08:15:44.529Z,55.98
2022-09-28T08:16:44.513Z,50.44
2022-09-28T08:17:44.440Z,50.66
2022-09-28T08:18:44.451Z,54.43
2022-09-28T08:19:44.430Z,57.23
2022-09-28T08:20:46.997Z,58.92
2022-09-28T08:21:44.447Z,60.32
2022-09-28T08:22:44.427Z,59.39
2022-09-28T08:23:44.397Z,63.46
2022-09-28T08:24:44.382Z,64.13
2022-09-28T08:25:44.377Z,65.99
2022-09-28T08:26:44.394Z,68.28
2022-09-28T08:27:44.363Z,70.25
2022-09-28T08:28:44.359Z,69.46
2022-09-28T08:29:44.363Z,71.60
2022-09-28T08:30:44.421Z,71.43
2022-09-28T08:31:44.352Z,71.12
2022-09-28T08:32:44.351Z,64.25
2022-09-28T08:33:44.335Z,62.65
2022-09-28T08:34:44.310Z,56.37
2022-09-28T08:35:44.294Z,54.63
2022-09-28T08:36:44.310Z,50.74
2022-09-28T08:37:48.854Z,49.49
2022-09-28T08:38:45.298Z,49.73
2022-09-28T08:39:44.270Z,49.54
2022-09-28T08:40:44.308Z,53.42
2022-09-28T08:41:44.253Z,57.96
2022-09-28T08:42:44.239Z,60.36
2022-09-28T08:43:44.228Z,59.71
2022-09-28T08:45:44.230Z,61.98
2022-09-28T08:46:44.207Z,63.56
2022-09-28T08:47:44.201Z,65.01
2022-09-28T08:48:52.274Z,64.84
2022-09-28T08:49:45.241Z,65.58
2022-09-28T08:50:44.176Z,66.12
2022-09-28T08:51:44.157Z,66.72
2022-09-28T08:52:44.153Z,67.60
2022-09-28T08:53:44.145Z,68.21
2022-09-28T08:54:44.165Z,68.14
2022-09-28T08:55:44.129Z,68.62
2022-09-28T08:56:44.152Z,68.32
2022-09-28T08:57:44.107Z,65.45
2022-09-28T08:58:44.107Z,59.05
2022-09-28T08:59:44.131Z,56.31
2022-09-28T09:00:44.091Z,53.55
2022-09-28T09:01:44.123Z,49.46
2022-09-28T09:02:44.149Z,49.80
2022-09-28T09:03:44.058Z,51.11
2022-09-28T09:04:44.070Z,53.52
2022-09-28T09:05:44.065Z,49.86
2022-09-28T09:06:44.040Z,49.32
2022-09-28T09:07:44.031Z,44.65
2022-09-28T09:08:44.026Z,47.24
2022-09-28T09:09:44.023Z,47.61
2022-09-28T09:10:44.005Z,45.28
2022-09-28T09:11:44.018Z,51.51
2022-09-28T09:12:44.090Z,48.25
2022-09-28T09:13:44.017Z,49.49
2022-09-28T09:14:43.975Z,46.14
2022-09-28T09:15:43.966Z,48.11
2022-09-28T09:16:46.942Z,46.00
2022-09-28T09:17:43.973Z,45.72
2022-09-28T09:18:43.941Z,47.22
2022-09-28T09:19:43.921Z,45.42
2022-09-28T09:20:43.930Z,46.62
2022-09-28T09:21:43.917Z,47.61
2022-09-28T09:22:43.901Z,48.86
2022-09-28T09:23:43.910Z,49.01
2022-09-28T09:24:43.889Z,50.58
2022-09-28T09:25:43.880Z,50.66
2022-09-28T09:26:43.874Z,51.66
2022-09-28T09:27:43.867Z,53.52
2022-09-28T09:28:43.872Z,54.91
2022-09-28T09:29:43.839Z,57.89
2022-09-28T09:30:43.869Z,59.56
2022-09-28T09:31:43.826Z,59.39
2022-09-28T09:32:43.808Z,58.71
2022-09-28T09:33:43.824Z,61.47
2022-09-28T09:34:43.792Z,61.40
2022-09-28T09:35:43.820Z,61.76
2022-09-28T09:36:43.784Z,62.91
2022-09-28T09:37:43.779Z,64.39
2022-09-28T09:38:43.781Z,65.54
2022-09-28T09:39:43.752Z,66.15
2022-09-28T09:40:43.875Z,66.69
2022-09-28T09:41:43.748Z,66.72
2022-09-28T09:42:43.759Z,68.14
2022-09-28T09:43:43.720Z,66.96
2022-09-28T09:44:43.734Z,67.97
2022-09-28T09:45:43.741Z,66.96
2022-09-28T09:46:43.738Z,68.21
2022-09-28T09:47:43.705Z,67.80
2022-09-28T09:48:43.685Z,68.21
2022-09-28T09:49:43.680Z,68.82
2022-09-28T09:50:43.705Z,69.53
2022-09-28T09:51:43.665Z,70.07
2022-09-28T09:52:44.417Z,71.70
2022-09-28T09:53:43.655Z,71.30
2022-09-28T09:54:43.640Z,71.09
2022-09-28T09:55:43.656Z,71.09
2022-09-28T09:56:43.646Z,71.80
2022-09-28T09:57:43.634Z,72.34
2022-09-28T09:58:43.613Z,73.88
2022-09-28T09:59:43.593Z,73.88
2022-09-28T10:00:43.599Z,75.03
2022-09-28T10:01:43.645Z,75.48
2022-09-28T10:02:43.654Z,75.37
2022-09-28T10:03:43.568Z,75.61
2022-09-28T10:04:43.559Z,76.67
2022-09-28T10:05:43.561Z,74.56
2022-09-28T10:06:43.573Z,75.92
2022-09-28T10:07:43.752Z,75.58
2022-09-28T10:08:43.539Z,75.21
2022-09-28T10:09:43.522Z,75.79
2022-09-28T10:10:43.549Z,75.17
2022-09-28T10:11:43.540Z,75.07
2022-09-28T10:12:43.501Z,75.38
2022-09-28T10:13:43.512Z,75.10
2022-09-28T10:14:43.480Z,76.30
2022-09-28T10:15:43.482Z,77.83
2022-09-28T10:16:43.518Z,80.07
2022-09-28T10:17:43.460Z,78.06
2022-09-28T10:18:43.536Z,77.34
2022-09-28T10:19:43.450Z,77.98
2022-09-28T10:20:43.477Z,74.42
2022-09-28T10:21:43.442Z,75.20
2022-09-28T10:22:43.426Z,74.08
2022-09-28T10:23:43.419Z,75.03
2022-09-28T10:24:43.416Z,74.90
2022-09-28T10:25:43.407Z,75.10
2022-09-28T10:26:43.439Z,74.55
2022-09-28T10:27:43.387Z,72.72
2022-09-28T10:28:43.381Z,73.94
2022-09-28T10:29:43.378Z,73.88
2022-09-28T10:30:43.401Z,74.58
2022-09-28T10:31:43.354Z,75.92
2022-09-28T10:32:43.380Z,75.51
2022-09-28T10:33:43.371Z,74.79
2022-09-28T10:34:46.341Z,72.86
2022-09-28T10:35:43.334Z,72.86
2022-09-28T10:36:43.326Z,72.24
2022-09-28T10:37:43.329Z,73.16
2022-09-28T10:38:43.304Z,73.36
2022-09-28T10:39:43.331Z,73.97
2022-09-28T10:40:43.332Z,74.08
2022-09-28T10:41:43.285Z,74.55
2022-09-28T10:42:43.288Z,74.49
2022-09-28T10:43:46.565Z,74.90
2022-09-28T10:44:44.283Z,74.08
2022-09-28T10:45:43.306Z,72.45
2022-09-28T10:46:43.254Z,75.10
2022-09-28T10:47:43.240Z,75.51
2022-09-28T10:48:43.263Z,73.74
2022-09-28T10:49:46.861Z,73.60
2022-09-28T10:50:43.228Z,75.84
2022-09-28T10:51:43.218Z,75.23
2022-09-28T10:52:43.209Z,75.54
2022-09-28T10:53:43.224Z,73.91
2022-09-28T10:54:43.220Z,72.69
2022-09-28T10:55:43.190Z,72.08
2022-09-28T10:56:43.192Z,71.06
2022-09-28T10:57:43.206Z,69.53
2022-09-28T10:58:43.168Z,70.86
2022-09-28T10:59:43.172Z,71.56
2022-09-28T11:00:43.161Z,71.16
2022-09-28T11:01:43.234Z,70.31
2022-09-28T11:02:43.197Z,70.10
2022-09-28T11:03:43.130Z,70.92
2022-09-28T11:04:43.120Z,72.01
2022-09-28T11:05:43.113Z,70.14
2022-09-28T11:06:43.109Z,68.38
2022-09-28T11:07:43.117Z,69.37
2022-09-28T11:08:44.336Z,68.62
2022-09-28T11:09:46.346Z,64.33
2022-09-28T11:10:43.078Z,64.30
2022-09-28T11:11:43.073Z,64.50
2022-09-28T11:12:43.069Z,66.23
2022-09-28T11:13:43.078Z,64.91
2022-09-28T11:14:43.066Z,66.86
2022-09-28T11:15:43.039Z,66.49
2022-09-28T11:16:43.133Z,68.22
2022-09-28T11:17:43.033Z,68.76
2022-09-28T11:18:43.036Z,68.69
2022-09-28T11:19:43.026Z,67.67
2022-09-28T11:20:45.429Z,69.64
2022-09-28T11:21:43.000Z,69.13
2022-09-28T11:22:42.981Z,69.53
2022-09-28T11:23:42.981Z,69.94
2022-09-28T11:24:42.990Z,70.75
2022-09-28T11:25:43.042Z,70.25
2022-09-28T11:26:42.975Z,68.41
2022-09-28T11:27:42.985Z,69.53
2022-09-28T11:28:42.939Z,70.14
2022-09-28T11:29:42.938Z,69.43
2022-09-28T11:30:43.002Z,69.06
2022-09-28T11:31:42.925Z,68.79
2022-09-28T11:32:42.915Z,69.49
2022-09-28T11:33:42.918Z,70.34
2022-09-28T11:34:58.630Z,71.47
2022-09-28T11:35:43.878Z,72.58
2022-09-28T11:36:42.875Z,73.13
2022-09-28T11:37:42.874Z,72.24
2022-09-28T11:38:42.884Z,73.26
2022-09-28T11:39:42.852Z,72.24
2022-09-28T11:40:42.871Z,71.97
2022-09-28T11:41:42.848Z,71.36
2022-09-28T11:42:42.850Z,72.17
2022-09-28T11:43:42.825Z,72.72
2022-09-28T11:44:42.826Z,73.03
2022-09-28T11:45:42.893Z,73.47
2022-09-28T11:46:42.811Z,73.94
2022-09-28T11:47:42.822Z,74.79
2022-09-28T11:48:42.792Z,74.90
2022-09-28T11:49:42.816Z,75.10
2022-09-28T11:50:42.788Z,75.71
2022-09-28T11:51:42.877Z,75.92
2022-09-28T11:52:42.757Z,75.07
2022-09-28T11:53:42.746Z,75.16
2022-09-28T11:54:42.754Z,75.16
2022-09-28T11:55:42.754Z,75.74
2022-09-28T11:56:42.734Z,75.34
2022-09-28T11:57:42.721Z,75.37
2022-09-28T11:58:42.731Z,74.42
2022-09-28T11:59:42.692Z,73.30
2022-09-28T12:00:42.691Z,74.62
2022-09-28T12:01:42.674Z,74.62
2022-09-28T12:02:42.761Z,73.50
2022-09-28T12:03:42.960Z,71.87
2022-09-28T12:04:42.687Z,72.86
2022-09-28T12:05:42.682Z,73.91
2022-09-28T12:06:42.658Z,71.94
2022-09-28T12:07:42.639Z,72.65
2022-09-28T12:08:42.658Z,73.47
2022-09-28T12:09:42.630Z,73.02
2022-09-28T12:10:45.528Z,72.01
2022-09-28T12:11:42.637Z,72.21
2022-09-28T12:12:42.612Z,71.80
2022-09-28T12:13:42.595Z,72.92
2022-09-28T12:14:42.591Z,71.87
2022-09-28T12:16:11.618Z,70.51
2022-09-28T12:17:04.996Z,70.82
2022-09-28T12:17:43.647Z,72.01
2022-09-28T12:18:42.568Z,70.51
2022-09-28T12:19:42.549Z,69.80
2022-09-28T12:20:42.542Z,69.43
2022-09-28T12:21:42.557Z,70.75
2022-09-28T12:22:42.538Z,72.31
2022-09-28T12:23:42.516Z,71.70
2022-09-28T12:24:42.515Z,71.63
2022-09-28T12:25:42.500Z,72.24
2022-09-28T12:26:42.512Z,72.79
2022-09-28T12:27:42.514Z,72.79
2022-09-28T12:28:42.484Z,71.87
2022-09-28T12:29:42.469Z,72.28
2022-09-28T12:30:42.499Z,72.08
2022-09-28T12:31:42.474Z,72.48
2022-09-28T12:32:42.472Z,72.21
2022-09-28T12:33:42.445Z,72.41
2022-09-28T12:34:42.446Z,72.04
2022-09-28T12:35:42.425Z,73.67
2022-09-28T12:36:42.432Z,73.47
2022-09-28T12:37:42.459Z,74.38
2022-09-28T12:38:42.409Z,74.79
2022-09-28T12:39:57.120Z,75.13
2022-09-28T12:40:43.477Z,75.85
2022-09-28T12:41:42.394Z,76.36
2022-09-28T12:42:42.383Z,77.11
2022-09-28T12:43:42.375Z,77.01
2022-09-28T12:44:42.369Z,77.72
2022-09-28T12:45:59.722Z,78.03
2022-09-28T12:46:43.448Z,77.83
2022-09-28T12:47:42.333Z,80.58
2022-09-28T12:48:42.335Z,80.32
2022-09-28T12:50:52.626Z,81.13
2022-09-28T12:51:43.348Z,80.73
2022-09-28T12:52:42.327Z,81.13
2022-09-28T12:53:42.293Z,80.32
2022-09-28T12:54:42.303Z,80.42